»·PEaware :: N132KT KMYL-KBAB

N132KT :: KMYL-KBAB

FLIGHT INFORMATION

Flight Status: Arrived
Operator: Privately registered:
United States
More flights under this callsign
Pilot: Keith S. (1)
Aircraft: MITSUBISHI MU-2 MARQUISE
(MU2)
More flights by this aircraft type
Origin: KMYL McCall
United States
Destination: KBAB Beale AFB
United States
More flights between these airports :: More routes between these airports
Route: +
File this flight plan on PilotEdge
Remarks: NEWRM
Altitude:
(Current/Filed)
16,500ft
Speed:
(Current/Filed)
320kts
Departed: 26-Feb-19 06:39 AM
Arrived: 26-Feb-19 08:28 AM
Distance/Time
Traveled:
419nm/1:49
Distance/Time
To Go:
Arrived

Flight Plot

Page will automatically refresh every two minutes.

Flight plan parsing failed; only flown route is shown


Map Options




Map Legend


Flown Route
Filed Route
Departure Airport
Arrival Airport
Navaid (VOR, NDB)
Fix

Horizontal Profiles

Position Reports

Time Latitude Longitude Heading Altitude Ground
Speed
26-Feb-19 06:31 44.890943 -116.098889 177 5024ft 0kts
26-Feb-19 06:32 44.890943 -116.098889 178 5024ft 0kts
26-Feb-19 06:33 44.890942 -116.098889 178 5024ft 0kts
26-Feb-19 06:34 44.890943 -116.098889 178 5024ft 0kts
26-Feb-19 06:35 44.891749 -116.097027 358 5031ft 12kts
26-Feb-19 06:36 44.896320 -116.097713 309 5041ft 13kts
26-Feb-19 06:37 44.896893 -116.101741 276 5035ft 7kts
26-Feb-19 06:38 44.868711 -116.101799 187 5326ft 187kts
26-Feb-19 06:39 44.838495 -116.149351 234 7757ft 171kts
26-Feb-19 06:40 44.801559 -116.192312 221 10104ft 174kts
26-Feb-19 06:41 44.759164 -116.236165 220 11707ft 201kts
26-Feb-19 06:42 44.713578 -116.283236 220 13504ft 204kts
26-Feb-19 06:43 44.667930 -116.330308 220 15326ft 204kts
26-Feb-19 06:44 44.621117 -116.378375 220 16483ft 224kts
26-Feb-19 06:45 44.567509 -116.430376 222 16483ft 236kts
26-Feb-19 06:46 44.514154 -116.486750 220 16506ft 242kts
26-Feb-19 06:47 44.459001 -116.541726 220 16539ft 243kts
26-Feb-19 06:48 44.404128 -116.597328 220 16563ft 243kts
26-Feb-19 06:49 44.350973 -116.651411 219 16586ft 243kts
26-Feb-19 06:50 44.295613 -116.707489 219 16593ft 245kts
26-Feb-19 06:51 44.240187 -116.763458 219 16592ft 246kts
26-Feb-19 06:52 44.184535 -116.819627 219 16591ft 246kts
26-Feb-19 06:53 44.128992 -116.875586 219 16591ft 246kts
26-Feb-19 06:54 44.073605 -116.931199 220 16590ft 245kts
26-Feb-19 06:55 44.013769 -116.976357 202 16589ft 248kts
26-Feb-19 06:56 43.966158 -117.034715 229 16593ft 238kts
26-Feb-19 06:57 43.914108 -117.093326 221 16588ft 243kts
26-Feb-19 06:58 43.859069 -117.148559 221 16592ft 243kts
26-Feb-19 06:59 43.804042 -117.203302 221 16591ft 243kts
26-Feb-19 07:00 43.749055 -117.257796 221 16590ft 243kts
26-Feb-19 07:01 43.694082 -117.312151 221 16589ft 243kts
26-Feb-19 07:02 43.638930 -117.366728 221 16626ft 244kts
26-Feb-19 07:03 43.583231 -117.421916 221 16625ft 246kts
26-Feb-19 07:04 43.527313 -117.476862 221 16624ft 246kts
26-Feb-19 07:07 43.359419 -117.641026 221 16508ft 249kts
26-Feb-19 07:09 43.243971 -117.753245 220 16511ft 249kts
26-Feb-19 07:10 43.187304 -117.808138 220 16510ft 249kts
26-Feb-19 07:11 43.130667 -117.862876 220 16509ft 249kts
26-Feb-19 07:12 43.074083 -117.917431 220 16508ft 249kts
26-Feb-19 07:13 43.017538 -117.971808 220 16508ft 248kts
26-Feb-19 07:14 42.961541 -118.025533 221 16506ft 244kts
26-Feb-19 07:15 42.906647 -118.078105 221 16504ft 238kts
26-Feb-19 07:16 42.854431 -118.128015 221 16510ft 233kts
26-Feb-19 07:17 42.801459 -118.178539 221 16510ft 231kts
26-Feb-19 07:18 42.748985 -118.228472 221 16509ft 230kts
26-Feb-19 07:19 42.696571 -118.278237 221 16508ft 230kts
26-Feb-19 07:20 42.644121 -118.327933 221 16507ft 229kts
26-Feb-19 07:21 42.591872 -118.377336 221 16506ft 229kts
26-Feb-19 07:22 42.539759 -118.426526 221 16505ft 228kts
26-Feb-19 07:23 42.487482 -118.475757 221 16504ft 228kts
26-Feb-19 07:24 42.435498 -118.524617 221 16503ft 228kts
26-Feb-19 07:25 42.383192 -118.573664 221 16502ft 228kts
26-Feb-19 07:26 42.331188 -118.622325 221 16500ft 228kts
26-Feb-19 07:27 42.280226 -118.669917 221 16512ft 228kts
26-Feb-19 07:28 42.227853 -118.718732 221 16511ft 229kts
26-Feb-19 07:29 42.175195 -118.767709 221 16510ft 230kts
26-Feb-19 07:30 42.122514 -118.816618 220 16509ft 230kts
26-Feb-19 07:31 42.069773 -118.865483 220 16507ft 231kts
26-Feb-19 07:32 42.016931 -118.914324 220 16507ft 232kts
26-Feb-19 07:33 41.963492 -118.963629 219 16506ft 234kts
26-Feb-19 07:34 41.909643 -119.013194 219 16505ft 235kts
26-Feb-19 07:35 41.855393 -119.063013 219 16513ft 238kts
26-Feb-19 07:37 41.800475 -119.113318 219 16513ft 239kts
26-Feb-19 07:38 41.745562 -119.163508 219 16515ft 239kts
26-Feb-19 07:39 41.690398 -119.213827 219 16516ft 239kts
26-Feb-19 07:40 41.635336 -119.263950 219 16517ft 239kts
26-Feb-19 07:41 41.580127 -119.314113 219 16516ft 239kts
26-Feb-19 07:42 41.524916 -119.364175 219 16515ft 239kts
26-Feb-19 07:43 41.469821 -119.414044 219 16514ft 239kts
26-Feb-19 07:44 41.414764 -119.463779 219 16513ft 239kts
26-Feb-19 07:46 41.256283 -119.606374 219 16511ft 238kts
26-Feb-19 07:47 41.201669 -119.655320 218 16516ft 238kts
26-Feb-19 07:48 41.146279 -119.704829 218 16519ft 240kts
26-Feb-19 07:49 41.090531 -119.754522 218 16518ft 240kts
26-Feb-19 07:50 41.034948 -119.803945 218 16517ft 238kts
26-Feb-19 07:51 40.979722 -119.853009 218 16516ft 235kts
26-Feb-19 07:52 40.925040 -119.901530 219 16514ft 232kts
26-Feb-19 07:53 40.872282 -119.948278 218 16523ft 232kts
26-Feb-19 07:54 40.818006 -119.996215 218 16522ft 232kts
26-Feb-19 07:55 40.763949 -120.043861 219 16532ft 232kts
26-Feb-19 07:56 40.710187 -120.091172 218 16544ft 232kts
26-Feb-19 07:57 40.656215 -120.138520 219 16547ft 232kts
26-Feb-19 07:58 40.602544 -120.185513 218 16547ft 232kts
26-Feb-19 07:59 40.548775 -120.232513 218 16557ft 231kts
26-Feb-19 08:00 40.495097 -120.279339 219 16570ft 231kts
26-Feb-19 08:01 40.441566 -120.325926 219 16568ft 231kts
26-Feb-19 08:02 40.387720 -120.372778 219 16576ft 232kts
26-Feb-19 08:03 40.333857 -120.419474 219 16587ft 233kts
26-Feb-19 08:04 40.279543 -120.466461 219 16594ft 233kts
26-Feb-19 08:05 40.225417 -120.513193 219 16602ft 233kts
26-Feb-19 08:06 40.171344 -120.559800 219 16617ft 233kts
26-Feb-19 08:07 40.117386 -120.606239 219 16632ft 232kts
26-Feb-19 08:08 40.063484 -120.652554 218 16650ft 231kts
26-Feb-19 08:09 40.009063 -120.699217 218 16674ft 233kts
26-Feb-19 08:10 39.954548 -120.745848 218 16681ft 233kts
26-Feb-19 08:11 39.900307 -120.792185 218 16679ft 234kts
26-Feb-19 08:12 39.849621 -120.835395 218 16685ft 235kts
26-Feb-19 08:13 39.794925 -120.881930 218 16681ft 235kts
26-Feb-19 08:14 39.739981 -120.928604 218 16679ft 235kts
26-Feb-19 08:15 39.685166 -120.975107 218 16676ft 235kts
26-Feb-19 08:16 39.630215 -121.021661 218 16675ft 236kts
26-Feb-19 08:17 39.575227 -121.068134 217 16674ft 236kts
26-Feb-19 08:18 39.520007 -121.114995 217 16673ft 237kts
26-Feb-19 08:19 39.464253 -121.161957 217 16672ft 239kts
26-Feb-19 08:20 39.408226 -121.209006 216 16672ft 240kts
26-Feb-19 08:21 39.352061 -121.256079 216 16669ft 240kts
26-Feb-19 08:22 39.295812 -121.303134 216 16666ft 240kts
26-Feb-19 08:23 39.241549 -121.343111 224 14187ft 155kts
26-Feb-19 08:24 39.221233 -121.373356 220 7156ft 135kts
26-Feb-19 08:25 39.187988 -121.396134 209 2466ft 176kts
26-Feb-19 08:26 39.153052 -121.432335 249 498ft 129kts
26-Feb-19 08:27 39.136437 -121.436707 163 111ft 35kts
26-Feb-19 08:28 39.132653 -121.433165 75 106ft 0kts

Navigation Log

Ident Type
Flight plan parsing failed, navigation log unavailable